sensor_id;sensor_type;location;lat;lon;timestamp;temperature;humidity
74294;DHT22;64044;59.904;10.738;2023-05-10T00:00:00;13.40;48.40
74294;DHT22;64044;59.904;10.738;2023-05-10T00:02:25;13.40;48.60
74294;DHT22;64044;59.904;10.738;2023-05-10T00:04:52;13.30;48.90
74294;DHT22;64044;59.904;10.738;2023-05-10T00:07:18;13.30;49.10
74294;DHT22;64044;59.904;10.738;2023-05-10T00:09:43;13.20;49.20
74294;DHT22;64044;59.904;10.738;2023-05-10T00:12:09;13.20;49.20
74294;DHT22;64044;59.904;10.738;2023-05-10T00:14:35;13.20;49.10
74294;DHT22;64044;59.904;10.738;2023-05-10T00:17:01;13.20;49.10
74294;DHT22;64044;59.904;10.738;2023-05-10T00:19:27;13.10;49.00
74294;DHT22;64044;59.904;10.738;2023-05-10T00:21:52;13.10;49.00
74294;DHT22;64044;59.904;10.738;2023-05-10T00:24:18;13.10;49.00
74294;DHT22;64044;59.904;10.738;2023-05-10T00:26:44;13.00;49.10
74294;DHT22;64044;59.904;10.738;2023-05-10T00:29:10;13.00;49.10
74294;DHT22;64044;59.904;10.738;2023-05-10T00:31:35;13.00;49.10
74294;DHT22;64044;59.904;10.738;2023-05-10T00:34:01;13.00;49.20
74294;DHT22;64044;59.904;10.738;2023-05-10T00:36:27;13.00;49.30
74294;DHT22;64044;59.904;10.738;2023-05-10T00:38:53;13.00;50.00
74294;DHT22;64044;59.904;10.738;2023-05-10T00:41:18;13.00;49.60
74294;DHT22;64044;59.904;10.738;2023-05-10T00:43:44;13.00;49.60
74294;DHT22;64044;59.904;10.738;2023-05-10T00:46:10;13.00;49.60
74294;DHT22;64044;59.904;10.738;2023-05-10T00:48:36;13.00;49.50
74294;DHT22;64044;59.904;10.738;2023-05-10T00:51:02;13.00;49.60
74294;DHT22;64044;59.904;10.738;2023-05-10T00:53:30;13.00;49.60
74294;DHT22;64044;59.904;10.738;2023-05-10T00:55:56;13.00;49.60
74294;DHT22;64044;59.904;10.738;2023-05-10T00:58:22;13.00;49.70
74294;DHT22;64044;59.904;10.738;2023-05-10T01:00:49;13.00;49.70
74294;DHT22;64044;59.904;10.738;2023-05-10T01:03:16;13.00;49.60
74294;DHT22;64044;59.904;10.738;2023-05-10T01:05:42;13.00;49.60
74294;DHT22;64044;59.904;10.738;2023-05-10T01:08:08;13.00;49.50
74294;DHT22;64044;59.904;10.738;2023-05-10T01:10:34;13.00;49.70
74294;DHT22;64044;59.904;10.738;2023-05-10T01:13:00;13.00;49.50
74294;DHT22;64044;59.904;10.738;2023-05-10T01:15:26;13.00;49.80
74294;DHT22;64044;59.904;10.738;2023-05-10T01:17:52;13.00;49.80
74294;DHT22;64044;59.904;10.738;2023-05-10T01:20:19;13.00;49.60
74294;DHT22;64044;59.904;10.738;2023-05-10T01:34:22;13.00;50.00
74294;DHT22;64044;59.904;10.738;2023-05-10T01:36:56;13.00;49.90
74294;DHT22;64044;59.904;10.738;2023-05-10T01:41:55;12.90;49.80
74294;DHT22;64044;59.904;10.738;2023-05-10T01:44:29;12.90;49.90
74294;DHT22;64044;59.904;10.738;2023-05-10T01:47:04;12.90;49.80
74294;DHT22;64044;59.904;10.738;2023-05-10T01:49:37;12.90;50.10
74294;DHT22;64044;59.904;10.738;2023-05-10T01:52:16;12.90;49.90
74294;DHT22;64044;59.904;10.738;2023-05-10T01:54:57;12.90;50.30
74294;DHT22;64044;59.904;10.738;2023-05-10T01:57:27;12.90;50.20
74294;DHT22;64044;59.904;10.738;2023-05-10T01:59:57;12.90;49.90
74294;DHT22;64044;59.904;10.738;2023-05-10T02:02:24;12.80;49.90
74294;DHT22;64044;59.904;10.738;2023-05-10T02:04:52;12.80;49.90
74294;DHT22;64044;59.904;10.738;2023-05-10T02:07:19;12.80;50.00
74294;DHT22;64044;59.904;10.738;2023-05-10T02:09:47;12.80;50.10
74294;DHT22;64044;59.904;10.738;2023-05-10T02:12:14;12.80;50.10
74294;DHT22;64044;59.904;10.738;2023-05-10T02:14:41;12.70;50.10
74294;DHT22;64044;59.904;10.738;2023-05-10T02:17:08;12.80;50.80
74294;DHT22;64044;59.904;10.738;2023-05-10T02:19:38;12.70;50.20
74294;DHT22;64044;59.904;10.738;2023-05-10T02:22:05;12.70;50.30
74294;DHT22;64044;59.904;10.738;2023-05-10T02:24:32;12.70;50.30
74294;DHT22;64044;59.904;10.738;2023-05-10T02:27:00;12.70;50.50
74294;DHT22;64044;59.904;10.738;2023-05-10T02:29:27;12.70;51.10
74294;DHT22;64044;59.904;10.738;2023-05-10T02:31:55;12.60;50.50
74294;DHT22;64044;59.904;10.738;2023-05-10T02:34:26;12.60;50.50
74294;DHT22;64044;59.904;10.738;2023-05-10T02:36:54;12.60;50.70
74294;DHT22;64044;59.904;10.738;2023-05-10T02:39:22;12.60;50.60
74294;DHT22;64044;59.904;10.738;2023-05-10T02:41:49;12.60;50.60
74294;DHT22;64044;59.904;10.738;2023-05-10T02:44:40;12.60;50.60
74294;DHT22;64044;59.904;10.738;2023-05-10T02:47:07;12.50;51.10
74294;DHT22;64044;59.904;10.738;2023-05-10T02:49:32;12.60;50.60
74294;DHT22;64044;59.904;10.738;2023-05-10T02:52:01;12.50;50.10
74294;DHT22;64044;59.904;10.738;2023-05-10T02:54:33;12.50;50.30
74294;DHT22;64044;59.904;10.738;2023-05-10T02:57:02;12.50;50.40
74294;DHT22;64044;59.904;10.738;2023-05-10T02:59:29;12.50;50.50
74294;DHT22;64044;59.904;10.738;2023-05-10T03:01:55;12.50;50.50
74294;DHT22;64044;59.904;10.738;2023-05-10T03:04:20;12.50;50.50
74294;DHT22;64044;59.904;10.738;2023-05-10T03:06:46;12.50;50.40
74294;DHT22;64044;59.904;10.738;2023-05-10T03:09:13;12.50;50.90
74294;DHT22;64044;59.904;10.738;2023-05-10T03:17:22;12.40;50.70
74294;DHT22;64044;59.904;10.738;2023-05-10T03:19:57;12.50;50.50
74294;DHT22;64044;59.904;10.738;2023-05-10T03:22:44;12.40;50.50
74294;DHT22;64044;59.904;10.738;2023-05-10T03:25:11;12.40;50.60
74294;DHT22;64044;59.904;10.738;2023-05-10T03:27:40;12.40;50.30
74294;DHT22;64044;59.904;10.738;2023-05-10T03:30:11;12.40;50.40
74294;DHT22;64044;59.904;10.738;2023-05-10T03:32:37;12.40;50.60
74294;DHT22;64044;59.904;10.738;2023-05-10T03:35:07;12.50;50.40
74294;DHT22;64044;59.904;10.738;2023-05-10T03:37:34;12.40;50.60
74294;DHT22;64044;59.904;10.738;2023-05-10T03:40:00;12.50;50.50
74294;DHT22;64044;59.904;10.738;2023-05-10T03:42:26;12.50;50.50
74294;DHT22;64044;59.904;10.738;2023-05-10T03:44:51;12.50;50.40
74294;DHT22;64044;59.904;10.738;2023-05-10T03:47:17;12.50;50.30
74294;DHT22;64044;59.904;10.738;2023-05-10T03:49:43;12.50;50.40
74294;DHT22;64044;59.904;10.738;2023-05-10T03:52:08;12.50;50.40
74294;DHT22;64044;59.904;10.738;2023-05-10T03:54:34;12.50;50.40
74294;DHT22;64044;59.904;10.738;2023-05-10T03:57:00;12.50;50.30
74294;DHT22;64044;59.904;10.738;2023-05-10T03:59:26;12.60;50.40
74294;DHT22;64044;59.904;10.738;2023-05-10T04:01:52;12.60;50.30
74294;DHT22;64044;59.904;10.738;2023-05-10T04:04:18;12.60;50.40
74294;DHT22;64044;59.904;10.738;2023-05-10T04:06:44;12.60;50.40
74294;DHT22;64044;59.904;10.738;2023-05-10T04:09:10;12.60;50.90
74294;DHT22;64044;59.904;10.738;2023-05-10T04:11:36;12.60;50.30
74294;DHT22;64044;59.904;10.738;2023-05-10T04:14:02;12.60;50.20
74294;DHT22;64044;59.904;10.738;2023-05-10T04:16:27;12.70;50.20
74294;DHT22;64044;59.904;10.738;2023-05-10T04:18:53;12.70;50.10
74294;DHT22;64044;59.904;10.738;2023-05-10T04:21:19;12.70;50.10
74294;DHT22;64044;59.904;10.738;2023-05-10T04:23:44;12.70;50.00
74294;DHT22;64044;59.904;10.738;2023-05-10T04:26:10;12.80;50.00
74294;DHT22;64044;59.904;10.738;2023-05-10T04:28:36;12.80;50.00
74294;DHT22;64044;59.904;10.738;2023-05-10T04:33:28;12.80;50.00
74294;DHT22;64044;59.904;10.738;2023-05-10T04:35:54;12.90;49.90
74294;DHT22;64044;59.904;10.738;2023-05-10T04:38:20;12.90;49.70
74294;DHT22;64044;59.904;10.738;2023-05-10T04:40:45;13.00;49.60
74294;DHT22;64044;59.904;10.738;2023-05-10T04:43:11;13.10;49.50
74294;DHT22;64044;59.904;10.738;2023-05-10T04:45:37;13.10;49.40
74294;DHT22;64044;59.904;10.738;2023-05-10T04:48:03;13.10;49.20
74294;DHT22;64044;59.904;10.738;2023-05-10T04:50:28;13.20;49.10
74294;DHT22;64044;59.904;10.738;2023-05-10T04:52:54;13.20;48.90
74294;DHT22;64044;59.904;10.738;2023-05-10T04:55:20;13.30;48.80
74294;DHT22;64044;59.904;10.738;2023-05-10T04:57:45;13.30;48.70
74294;DHT22;64044;59.904;10.738;2023-05-10T05:00:12;13.40;48.50
74294;DHT22;64044;59.904;10.738;2023-05-10T05:02:38;13.50;48.50
74294;DHT22;64044;59.904;10.738;2023-05-10T05:05:04;13.50;48.40
74294;DHT22;64044;59.904;10.738;2023-05-10T05:07:30;13.60;48.20
74294;DHT22;64044;59.904;10.738;2023-05-10T05:09:56;13.60;48.10
74294;DHT22;64044;59.904;10.738;2023-05-10T05:12:22;13.70;48.10
74294;DHT22;64044;59.904;10.738;2023-05-10T05:14:47;13.80;48.00
74294;DHT22;64044;59.904;10.738;2023-05-10T05:17:13;13.80;47.90
74294;DHT22;64044;59.904;10.738;2023-05-10T05:19:39;13.90;47.80
74294;DHT22;64044;59.904;10.738;2023-05-10T05:22:07;13.90;47.60
74294;DHT22;64044;59.904;10.738;2023-05-10T05:24:36;14.00;47.50
74294;DHT22;64044;59.904;10.738;2023-05-10T05:27:05;14.10;47.40
74294;DHT22;64044;59.904;10.738;2023-05-10T05:29:31;14.10;47.20
74294;DHT22;64044;59.904;10.738;2023-05-10T05:31:57;14.20;47.10
74294;DHT22;64044;59.904;10.738;2023-05-10T05:34:23;14.20;46.90
74294;DHT22;64044;59.904;10.738;2023-05-10T05:36:49;14.30;46.80
74294;DHT22;64044;59.904;10.738;2023-05-10T05:39:15;14.40;46.60
74294;DHT22;64044;59.904;10.738;2023-05-10T05:41:41;14.40;46.50
74294;DHT22;64044;59.904;10.738;2023-05-10T05:44:07;14.50;46.30
74294;DHT22;64044;59.904;10.738;2023-05-10T05:46:33;14.60;46.10
74294;DHT22;64044;59.904;10.738;2023-05-10T05:48:59;14.70;46.00
74294;DHT22;64044;59.904;10.738;2023-05-10T05:51:25;14.70;45.80
74294;DHT22;64044;59.904;10.738;2023-05-10T05:53:50;14.80;45.60
74294;DHT22;64044;59.904;10.738;2023-05-10T05:56:16;14.80;45.40
74294;DHT22;64044;59.904;10.738;2023-05-10T05:58:52;14.90;45.30
74294;DHT22;64044;59.904;10.738;2023-05-10T06:01:18;15.00;45.20
74294;DHT22;64044;59.904;10.738;2023-05-10T06:03:44;15.10;45.20
74294;DHT22;64044;59.904;10.738;2023-05-10T06:06:09;15.10;45.10
74294;DHT22;64044;59.904;10.738;2023-05-10T06:08:35;15.20;45.00
74294;DHT22;64044;59.904;10.738;2023-05-10T06:11:01;15.30;44.70
74294;DHT22;64044;59.904;10.738;2023-05-10T06:13:27;15.30;44.60
74294;DHT22;64044;59.904;10.738;2023-05-10T06:15:57;15.40;44.60
74294;DHT22;64044;59.904;10.738;2023-05-10T06:18:23;15.50;44.50
74294;DHT22;64044;59.904;10.738;2023-05-10T06:20:49;15.50;44.30
74294;DHT22;64044;59.904;10.738;2023-05-10T06:23:15;15.60;44.30
74294;DHT22;64044;59.904;10.738;2023-05-10T06:25:41;15.70;44.10
74294;DHT22;64044;59.904;10.738;2023-05-10T06:28:07;15.70;44.00
74294;DHT22;64044;59.904;10.738;2023-05-10T06:30:32;15.80;43.90
74294;DHT22;64044;59.904;10.738;2023-05-10T06:32:58;15.90;43.70
74294;DHT22;64044;59.904;10.738;2023-05-10T06:35:24;16.00;43.60
74294;DHT22;64044;59.904;10.738;2023-05-10T06:37:50;16.00;43.40
74294;DHT22;64044;59.904;10.738;2023-05-10T06:40:16;16.10;43.20
74294;DHT22;64044;59.904;10.738;2023-05-10T06:42:42;16.20;43.10
74294;DHT22;64044;59.904;10.738;2023-05-10T06:45:09;16.30;42.90
74294;DHT22;64044;59.904;10.738;2023-05-10T06:47:35;16.40;42.80
74294;DHT22;64044;59.904;10.738;2023-05-10T06:50:01;16.50;42.60
74294;DHT22;64044;59.904;10.738;2023-05-10T06:52:26;16.50;42.60
74294;DHT22;64044;59.904;10.738;2023-05-10T06:54:52;16.60;42.40
74294;DHT22;64044;59.904;10.738;2023-05-10T06:57:18;16.70;42.30
74294;DHT22;64044;59.904;10.738;2023-05-10T06:59:44;16.80;42.10
74294;DHT22;64044;59.904;10.738;2023-05-10T07:02:10;16.90;41.90
74294;DHT22;64044;59.904;10.738;2023-05-10T07:04:35;16.90;41.80
74294;DHT22;64044;59.904;10.738;2023-05-10T07:07:01;17.00;41.70
74294;DHT22;64044;59.904;10.738;2023-05-10T07:09:27;17.10;41.70
74294;DHT22;64044;59.904;10.738;2023-05-10T07:11:53;17.20;41.70
74294;DHT22;64044;59.904;10.738;2023-05-10T07:14:19;17.20;41.40
74294;DHT22;64044;59.904;10.738;2023-05-10T07:16:45;17.30;41.20
74294;DHT22;64044;59.904;10.738;2023-05-10T07:19:10;17.40;41.10
74294;DHT22;64044;59.904;10.738;2023-05-10T07:21:36;17.50;41.20
74294;DHT22;64044;59.904;10.738;2023-05-10T07:24:02;17.50;40.90
74294;DHT22;64044;59.904;10.738;2023-05-10T07:26:28;17.60;40.80
74294;DHT22;64044;59.904;10.738;2023-05-10T07:28:55;17.60;40.60
74294;DHT22;64044;59.904;10.738;2023-05-10T07:31:20;17.70;40.30
74294;DHT22;64044;59.904;10.738;2023-05-10T07:33:46;17.80;40.00
74294;DHT22;64044;59.904;10.738;2023-05-10T07:36:12;17.80;39.80
74294;DHT22;64044;59.904;10.738;2023-05-10T07:38:38;17.90;39.60
74294;DHT22;64044;59.904;10.738;2023-05-10T07:41:05;18.00;39.70
74294;DHT22;64044;59.904;10.738;2023-05-10T07:43:30;18.10;39.60
74294;DHT22;64044;59.904;10.738;2023-05-10T07:45:56;18.10;39.80
74294;DHT22;64044;59.904;10.738;2023-05-10T07:48:23;18.20;40.00
74294;DHT22;64044;59.904;10.738;2023-05-10T07:50:48;18.20;40.10
74294;DHT22;64044;59.904;10.738;2023-05-10T07:53:14;18.30;40.20
74294;DHT22;64044;59.904;10.738;2023-05-10T07:55:40;18.30;39.80
74294;DHT22;64044;59.904;10.738;2023-05-10T07:58:05;18.30;41.10
74294;DHT22;64044;59.904;10.738;2023-05-10T08:00:31;18.30;40.50
74294;DHT22;64044;59.904;10.738;2023-05-10T08:02:57;18.40;40.40
74294;DHT22;64044;59.904;10.738;2023-05-10T08:05:23;18.40;40.10
74294;DHT22;64044;59.904;10.738;2023-05-10T08:07:48;18.40;39.80
74294;DHT22;64044;59.904;10.738;2023-05-10T08:10:14;18.40;39.60
74294;DHT22;64044;59.904;10.738;2023-05-10T08:12:40;18.50;39.80
74294;DHT22;64044;59.904;10.738;2023-05-10T08:15:06;18.50;40.00
74294;DHT22;64044;59.904;10.738;2023-05-10T08:17:32;18.50;39.60
74294;DHT22;64044;59.904;10.738;2023-05-10T08:19:58;18.50;39.20
74294;DHT22;64044;59.904;10.738;2023-05-10T08:22:23;18.60;39.10
74294;DHT22;64044;59.904;10.738;2023-05-10T08:24:49;18.60;38.70
74294;DHT22;64044;59.904;10.738;2023-05-10T08:27:15;18.60;38.80
74294;DHT22;64044;59.904;10.738;2023-05-10T08:29:40;18.60;38.90
74294;DHT22;64044;59.904;10.738;2023-05-10T08:32:06;18.70;38.90
74294;DHT22;64044;59.904;10.738;2023-05-10T08:34:32;18.70;38.90
74294;DHT22;64044;59.904;10.738;2023-05-10T08:36:58;18.70;39.10
74294;DHT22;64044;59.904;10.738;2023-05-10T08:39:24;18.70;38.90
74294;DHT22;64044;59.904;10.738;2023-05-10T08:41:51;18.80;39.10
74294;DHT22;64044;59.904;10.738;2023-05-10T08:44:18;18.90;39.10
74294;DHT22;64044;59.904;10.738;2023-05-10T08:46:46;18.90;38.80
74294;DHT22;64044;59.904;10.738;2023-05-10T08:49:14;19.00;38.20
74294;DHT22;64044;59.904;10.738;2023-05-10T08:51:48;19.00;38.10
74294;DHT22;64044;59.904;10.738;2023-05-10T08:54:15;19.00;38.80
74294;DHT22;64044;59.904;10.738;2023-05-10T08:56:41;19.10;38.20
74294;DHT22;64044;59.904;10.738;2023-05-10T08:59:07;19.10;38.00
74294;DHT22;64044;59.904;10.738;2023-05-10T09:01:35;19.10;38.20
74294;DHT22;64044;59.904;10.738;2023-05-10T09:04:01;19.10;38.50
74294;DHT22;64044;59.904;10.738;2023-05-10T09:06:28;19.20;39.10
74294;DHT22;64044;59.904;10.738;2023-05-10T09:08:54;19.20;39.10
74294;DHT22;64044;59.904;10.738;2023-05-10T09:11:20;19.10;38.60
74294;DHT22;64044;59.904;10.738;2023-05-10T09:13:48;19.10;38.40
74294;DHT22;64044;59.904;10.738;2023-05-10T09:16:16;19.10;39.20
74294;DHT22;64044;59.904;10.738;2023-05-10T09:18:41;19.10;39.80
74294;DHT22;64044;59.904;10.738;2023-05-10T09:21:08;19.10;39.20
74294;DHT22;64044;59.904;10.738;2023-05-10T09:23:34;19.10;38.90
74294;DHT22;64044;59.904;10.738;2023-05-10T09:26:04;19.10;39.40
74294;DHT22;64044;59.904;10.738;2023-05-10T09:28:56;19.00;39.10
74294;DHT22;64044;59.904;10.738;2023-05-10T09:31:23;19.00;40.40
74294;DHT22;64044;59.904;10.738;2023-05-10T09:33:50;19.00;40.20
74294;DHT22;64044;59.904;10.738;2023-05-10T09:36:16;19.00;40.20
74294;DHT22;64044;59.904;10.738;2023-05-10T09:38:46;19.00;40.40
74294;DHT22;64044;59.904;10.738;2023-05-10T09:41:20;19.00;40.70
74294;DHT22;64044;59.904;10.738;2023-05-10T09:43:46;19.10;39.80
74294;DHT22;64044;59.904;10.738;2023-05-10T09:46:12;19.10;40.20
74294;DHT22;64044;59.904;10.738;2023-05-10T09:48:50;19.10;40.40
74294;DHT22;64044;59.904;10.738;2023-05-10T09:51:23;19.10;39.90
74294;DHT22;64044;59.904;10.738;2023-05-10T09:53:50;19.10;39.70
74294;DHT22;64044;59.904;10.738;2023-05-10T09:56:34;19.10;40.10
74294;DHT22;64044;59.904;10.738;2023-05-10T09:59:05;19.20;40.30
74294;DHT22;64044;59.904;10.738;2023-05-10T10:01:31;19.20;40.30
74294;DHT22;64044;59.904;10.738;2023-05-10T10:03:57;19.30;40.40
74294;DHT22;64044;59.904;10.738;2023-05-10T10:06:24;19.30;40.80
74294;DHT22;64044;59.904;10.738;2023-05-10T10:08:51;19.30;41.20
74294;DHT22;64044;59.904;10.738;2023-05-10T10:11:16;19.40;41.10
74294;DHT22;64044;59.904;10.738;2023-05-10T10:13:43;19.40;41.40
74294;DHT22;64044;59.904;10.738;2023-05-10T10:16:09;19.50;41.30
74294;DHT22;64044;59.904;10.738;2023-05-10T10:18:36;19.50;41.70
74294;DHT22;64044;59.904;10.738;2023-05-10T10:21:08;19.50;41.80
74294;DHT22;64044;59.904;10.738;2023-05-10T10:23:37;19.50;41.80
74294;DHT22;64044;59.904;10.738;2023-05-10T10:26:03;19.50;41.80
74294;DHT22;64044;59.904;10.738;2023-05-10T10:31:23;19.50;41.30
74294;DHT22;64044;59.904;10.738;2023-05-10T10:34:10;19.50;42.80
74294;DHT22;64044;59.904;10.738;2023-05-10T10:36:46;19.50;42.20
74294;DHT22;64044;59.904;10.738;2023-05-10T10:39:13;19.60;42.70
74294;DHT22;64044;59.904;10.738;2023-05-10T10:47:21;19.60;42.60
74294;DHT22;64044;59.904;10.738;2023-05-10T10:50:04;19.60;42.00
74294;DHT22;64044;59.904;10.738;2023-05-10T10:52:43;19.70;41.90
74294;DHT22;64044;59.904;10.738;2023-05-10T10:55:09;19.80;42.40
74294;DHT22;64044;59.904;10.738;2023-05-10T10:57:56;19.80;42.60
74294;DHT22;64044;59.904;10.738;2023-05-10T11:00:36;19.90;41.90
74294;DHT22;64044;59.904;10.738;2023-05-10T11:03:11;19.90;42.80
74294;DHT22;64044;59.904;10.738;2023-05-10T11:08:26;20.00;42.40
74294;DHT22;64044;59.904;10.738;2023-05-10T11:13:43;20.10;42.60
74294;DHT22;64044;59.904;10.738;2023-05-10T11:16:22;20.20;41.70
74294;DHT22;64044;59.904;10.738;2023-05-10T11:18:53;20.20;42.10
74294;DHT22;64044;59.904;10.738;2023-05-10T11:21:19;20.30;42.50
74294;DHT22;64044;59.904;10.738;2023-05-10T11:23:53;20.40;42.30
74294;DHT22;64044;59.904;10.738;2023-05-10T11:26:22;20.40;42.20
74294;DHT22;64044;59.904;10.738;2023-05-10T11:28:51;20.50;42.30
74294;DHT22;64044;59.904;10.738;2023-05-10T11:31:17;20.70;42.10
74294;DHT22;64044;59.904;10.738;2023-05-10T11:33:44;20.80;41.20
74294;DHT22;64044;59.904;10.738;2023-05-10T11:38:43;21.10;41.20
74294;DHT22;64044;59.904;10.738;2023-05-10T11:41:10;21.20;39.50
74294;DHT22;64044;59.904;10.738;2023-05-10T11:43:40;21.40;39.50
74294;DHT22;64044;59.904;10.738;2023-05-10T11:46:08;21.60;40.00
74294;DHT22;64044;59.904;10.738;2023-05-10T11:48:35;21.80;39.20
74294;DHT22;64044;59.904;10.738;2023-05-10T11:51:01;22.00;39.60
74294;DHT22;64044;59.904;10.738;2023-05-10T11:53:30;22.30;39.10
74294;DHT22;64044;59.904;10.738;2023-05-10T11:56:03;22.50;37.80
74294;DHT22;64044;59.904;10.738;2023-05-10T11:58:30;22.70;36.70
74294;DHT22;64044;59.904;10.738;2023-05-10T12:00:57;23.10;36.90
74294;DHT22;64044;59.904;10.738;2023-05-10T12:03:22;23.40;36.80
74294;DHT22;64044;59.904;10.738;2023-05-10T12:05:48;23.80;36.70
74294;DHT22;64044;59.904;10.738;2023-05-10T12:08:15;24.10;35.50
74294;DHT22;64044;59.904;10.738;2023-05-10T12:10:41;24.40;34.90
74294;DHT22;64044;59.904;10.738;2023-05-10T12:13:13;24.80;35.00
74294;DHT22;64044;59.904;10.738;2023-05-10T12:15:40;25.10;33.70
74294;DHT22;64044;59.904;10.738;2023-05-10T12:18:11;25.50;34.10
74294;DHT22;64044;59.904;10.738;2023-05-10T12:20:37;25.70;32.90
74294;DHT22;64044;59.904;10.738;2023-05-10T12:23:04;26.00;32.20
74294;DHT22;64044;59.904;10.738;2023-05-10T12:25:32;26.20;32.10
74294;DHT22;64044;59.904;10.738;2023-05-10T12:28:00;26.40;32.10
74294;DHT22;64044;59.904;10.738;2023-05-10T12:30:31;26.60;32.70
74294;DHT22;64044;59.904;10.738;2023-05-10T12:33:02;26.80;32.30
74294;DHT22;64044;59.904;10.738;2023-05-10T12:35:32;27.10;31.20
74294;DHT22;64044;59.904;10.738;2023-05-10T12:37:58;27.30;30.60
74294;DHT22;64044;59.904;10.738;2023-05-10T12:40:24;27.50;30.00
74294;DHT22;64044;59.904;10.738;2023-05-10T12:42:50;27.70;29.90
74294;DHT22;64044;59.904;10.738;2023-05-10T12:45:17;28.00;28.90
74294;DHT22;64044;59.904;10.738;2023-05-10T12:47:43;28.20;28.60
74294;DHT22;64044;59.904;10.738;2023-05-10T12:50:09;28.40;28.80
74294;DHT22;64044;59.904;10.738;2023-05-10T12:52:36;28.60;28.10
74294;DHT22;64044;59.904;10.738;2023-05-10T12:55:02;28.80;27.60
74294;DHT22;64044;59.904;10.738;2023-05-10T12:57:29;29.00;27.60
74294;DHT22;64044;59.904;10.738;2023-05-10T12:59:54;29.20;27.30
74294;DHT22;64044;59.904;10.738;2023-05-10T13:02:20;29.50;27.20
74294;DHT22;64044;59.904;10.738;2023-05-10T13:04:48;29.70;27.20
74294;DHT22;64044;59.904;10.738;2023-05-10T13:07:14;30.00;26.90
74294;DHT22;64044;59.904;10.738;2023-05-10T13:09:40;30.20;25.80
74294;DHT22;64044;59.904;10.738;2023-05-10T13:12:06;30.40;25.30
74294;DHT22;64044;59.904;10.738;2023-05-10T13:14:32;30.70;25.10
74294;DHT22;64044;59.904;10.738;2023-05-10T13:16:57;30.90;24.90
74294;DHT22;64044;59.904;10.738;2023-05-10T13:19:23;31.20;24.80
74294;DHT22;64044;59.904;10.738;2023-05-10T13:21:49;31.40;24.20
74294;DHT22;64044;59.904;10.738;2023-05-10T13:24:15;31.70;23.70
74294;DHT22;64044;59.904;10.738;2023-05-10T13:26:46;31.90;23.30
74294;DHT22;64044;59.904;10.738;2023-05-10T13:29:12;32.20;22.80
74294;DHT22;64044;59.904;10.738;2023-05-10T13:31:37;32.40;23.90
74294;DHT22;64044;59.904;10.738;2023-05-10T13:34:04;32.60;23.80
74294;DHT22;64044;59.904;10.738;2023-05-10T13:36:30;32.70;24.00
74294;DHT22;64044;59.904;10.738;2023-05-10T13:38:56;32.80;23.90
74294;DHT22;64044;59.904;10.738;2023-05-10T13:41:22;32.70;23.10
74294;DHT22;64044;59.904;10.738;2023-05-10T13:43:48;32.60;23.60
74294;DHT22;64044;59.904;10.738;2023-05-10T13:46:14;32.60;23.80
74294;DHT22;64044;59.904;10.738;2023-05-10T13:48:40;32.40;22.50
74294;DHT22;64044;59.904;10.738;2023-05-10T13:51:06;32.30;22.40
74294;DHT22;64044;59.904;10.738;2023-05-10T13:53:31;32.20;22.50
74294;DHT22;64044;59.904;10.738;2023-05-10T13:55:57;31.90;22.10
74294;DHT22;64044;59.904;10.738;2023-05-10T13:58:23;31.90;22.30
74294;DHT22;64044;59.904;10.738;2023-05-10T14:00:49;31.70;22.20
74294;DHT22;64044;59.904;10.738;2023-05-10T14:03:15;31.60;23.10
74294;DHT22;64044;59.904;10.738;2023-05-10T14:05:40;31.50;23.00
74294;DHT22;64044;59.904;10.738;2023-05-10T14:08:06;31.40;23.50
74294;DHT22;64044;59.904;10.738;2023-05-10T14:10:34;31.30;22.80
74294;DHT22;64044;59.904;10.738;2023-05-10T14:13:00;31.30;22.40
74294;DHT22;64044;59.904;10.738;2023-05-10T14:15:26;31.30;22.10
74294;DHT22;64044;59.904;10.738;2023-05-10T14:17:52;31.30;23.40
74294;DHT22;64044;59.904;10.738;2023-05-10T14:20:17;31.30;23.40
74294;DHT22;64044;59.904;10.738;2023-05-10T14:22:43;31.40;23.30
74294;DHT22;64044;59.904;10.738;2023-05-10T14:25:09;31.40;24.20
74294;DHT22;64044;59.904;10.738;2023-05-10T14:27:35;31.50;24.40
74294;DHT22;64044;59.904;10.738;2023-05-10T14:30:01;31.60;24.70
74294;DHT22;64044;59.904;10.738;2023-05-10T14:32:26;31.70;25.00
74294;DHT22;64044;59.904;10.738;2023-05-10T14:34:53;31.80;24.50
74294;DHT22;64044;59.904;10.738;2023-05-10T14:37:19;31.90;24.20
74294;DHT22;64044;59.904;10.738;2023-05-10T14:39:44;32.00;24.20
74294;DHT22;64044;59.904;10.738;2023-05-10T14:42:11;32.20;24.10
74294;DHT22;64044;59.904;10.738;2023-05-10T14:44:37;32.40;24.20
74294;DHT22;64044;59.904;10.738;2023-05-10T14:47:03;32.50;23.90
74294;DHT22;64044;59.904;10.738;2023-05-10T14:49:29;32.70;22.60
74294;DHT22;64044;59.904;10.738;2023-05-10T14:51:55;32.80;22.80
74294;DHT22;64044;59.904;10.738;2023-05-10T14:54:20;33.00;23.20
74294;DHT22;64044;59.904;10.738;2023-05-10T14:56:46;33.10;22.60
74294;DHT22;64044;59.904;10.738;2023-05-10T14:59:14;33.40;22.20
74294;DHT22;64044;59.904;10.738;2023-05-10T15:01:39;33.70;21.70
74294;DHT22;64044;59.904;10.738;2023-05-10T15:04:07;33.90;20.90
74294;DHT22;64044;59.904;10.738;2023-05-10T15:06:34;34.00;20.80
74294;DHT22;64044;59.904;10.738;2023-05-10T15:09:01;34.20;20.60
74294;DHT22;64044;59.904;10.738;2023-05-10T15:11:28;34.20;20.50
74294;DHT22;64044;59.904;10.738;2023-05-10T15:13:54;34.20;20.50
74294;DHT22;64044;59.904;10.738;2023-05-10T15:16:20;34.20;20.30
74294;DHT22;64044;59.904;10.738;2023-05-10T15:18:46;34.20;20.10
74294;DHT22;64044;59.904;10.738;2023-05-10T15:21:12;34.20;20.10
74294;DHT22;64044;59.904;10.738;2023-05-10T15:23:38;34.20;19.80
74294;DHT22;64044;59.904;10.738;2023-05-10T15:26:03;34.20;20.10
74294;DHT22;64044;59.904;10.738;2023-05-10T15:28:29;34.30;20.00
74294;DHT22;64044;59.904;10.738;2023-05-10T15:30:55;34.30;20.20
74294;DHT22;64044;59.904;10.738;2023-05-10T15:33:22;34.30;20.00
74294;DHT22;64044;59.904;10.738;2023-05-10T15:35:48;34.30;19.80
74294;DHT22;64044;59.904;10.738;2023-05-10T15:38:14;34.30;19.80
74294;DHT22;64044;59.904;10.738;2023-05-10T15:40:40;34.30;19.50
74294;DHT22;64044;59.904;10.738;2023-05-10T15:43:06;34.30;19.50
74294;DHT22;64044;59.904;10.738;2023-05-10T15:45:31;34.30;19.60
74294;DHT22;64044;59.904;10.738;2023-05-10T15:47:58;34.20;19.60
74294;DHT22;64044;59.904;10.738;2023-05-10T15:50:24;34.20;19.30
74294;DHT22;64044;59.904;10.738;2023-05-10T15:52:50;34.20;19.10